Flugplatz Meschede-Schüren (EDKM)

Hier findest Du alle Informationen zum Flugplatz Meschede-Schüren (EDKM).

Informationen für Piloten zum Flugplatz Meschede-Schüren

Hier findest Du alle relevanten Informationen, die Du als Pilot benötigst, um Meschede-Schüren anzufliegen.

Flugplatz: Meschede-Schüren ICAO-Code: EDKM
Frequenz Turm: 126.015 Mhz GAFOR Gebiet: 36
Frequenz Ground: 126.015 Mhz Mogas: nein
Platzrunde: N 2300 ft Landegebühr: -
Platzhöhe: - Sunrise: 06:04 Uhr UTC
Pisten: 04/22 - 700 m x 30 m, ASPH Sunset: 16:17 Uhr UTC

Mitglieder, die in Meschede-Schüren fliegen

Flugwetter am Flugplatz Meschede-Schüren

Die METAR Information stammen aus EDLP (43.45 km entfernt).

METAR Code:
2021/10/18 08:20
EDLP 180820Z 16006KT CAVOK 10/04 Q1023

Flugschulen am Flugplatz Meschede-Schüren

Am Flugplatz Meschede-Schüren gibt es eine Flugschule.

Benachbarte Flugplätze und Flugschulen

Es gibt 24 weitere Flugplätze in einem Umkreis von 50 km um den Flugplatz Meschede-Schüren.

Jetzt anmelden

Passwort vergessen

Umfrage Archiv

Welche Navigations-App nutzt Ihr im Cockpit

SkyDemon
45.5 %
VFRnav
27.3 %
Ich nutze eine andere App
22.7 %
EasyVFR
4.5 %
ForeFlight
0 %
Ich nutze gar keine App
0 %
Stimmen: 22 | Diskussion
Anzeige: Roland Aircraft
Statistik Alle Mitglieder

Aktuell sind 29 Besucher online, davon 2 Mitglieder und 27 Gäste.


Mitglieder online:
Maraio  driver57 

Anzeige: VFR Sprechfunk Simulator Anzeige: Pocket FMS